sensor_id;sensor_type;location;lat;lon;timestamp;P1;durP1;ratioP1;P2;durP2;ratioP2
18435;SDS011;9346;52.006;4.720;2022-08-01T00:01:52;6.53;;;4.07;;
18435;SDS011;9346;52.006;4.720;2022-08-01T00:04:19;4.87;;;3.77;;
18435;SDS011;9346;52.006;4.720;2022-08-01T00:06:46;7.10;;;4.00;;
18435;SDS011;9346;52.006;4.720;2022-08-01T00:09:13;7.43;;;4.17;;
18435;SDS011;9346;52.006;4.720;2022-08-01T00:11:42;6.20;;;3.73;;
18435;SDS011;9346;52.006;4.720;2022-08-01T00:14:09;7.43;;;4.13;;
18435;SDS011;9346;52.006;4.720;2022-08-01T00:16:36;6.60;;;3.80;;
18435;SDS011;9346;52.006;4.720;2022-08-01T00:19:03;6.30;;;3.90;;
18435;SDS011;9346;52.006;4.720;2022-08-01T00:21:30;6.77;;;4.23;;
18435;SDS011;9346;52.006;4.720;2022-08-01T00:23:57;6.20;;;4.17;;
18435;SDS011;9346;52.006;4.720;2022-08-01T00:26:24;7.10;;;3.73;;
18435;SDS011;9346;52.006;4.720;2022-08-01T00:28:53;11.17;;;4.23;;
18435;SDS011;9346;52.006;4.720;2022-08-01T00:31:19;6.70;;;3.87;;
18435;SDS011;9346;52.006;4.720;2022-08-01T00:33:46;5.83;;;3.90;;
18435;SDS011;9346;52.006;4.720;2022-08-01T00:36:13;7.30;;;3.87;;
18435;SDS011;9346;52.006;4.720;2022-08-01T00:38:40;5.90;;;3.30;;
18435;SDS011;9346;52.006;4.720;2022-08-01T00:41:07;7.70;;;3.97;;
18435;SDS011;9346;52.006;4.720;2022-08-01T00:43:34;5.53;;;3.43;;
18435;SDS011;9346;52.006;4.720;2022-08-01T00:46:03;6.53;;;3.90;;
18435;SDS011;9346;52.006;4.720;2022-08-01T00:48:30;6.90;;;4.10;;
18435;SDS011;9346;52.006;4.720;2022-08-01T00:50:57;5.43;;;3.83;;
18435;SDS011;9346;52.006;4.720;2022-08-01T00:53:24;6.60;;;3.77;;
18435;SDS011;9346;52.006;4.720;2022-08-01T00:55:51;6.60;;;4.30;;
18435;SDS011;9346;52.006;4.720;2022-08-01T00:58:19;6.47;;;4.07;;
18435;SDS011;9346;52.006;4.720;2022-08-01T01:00:47;7.93;;;4.53;;
18435;SDS011;9346;52.006;4.720;2022-08-01T01:03:15;7.40;;;4.13;;
18435;SDS011;9346;52.006;4.720;2022-08-01T01:05:44;7.03;;;4.30;;
18435;SDS011;9346;52.006;4.720;2022-08-01T01:08:19;6.80;;;4.07;;
18435;SDS011;9346;52.006;4.720;2022-08-01T01:10:52;8.13;;;4.33;;
18435;SDS011;9346;52.006;4.720;2022-08-01T01:13:26;7.03;;;4.60;;
18435;SDS011;9346;52.006;4.720;2022-08-01T01:16:01;7.47;;;5.30;;
18435;SDS011;9346;52.006;4.720;2022-08-01T01:18:34;6.93;;;4.53;;
18435;SDS011;9346;52.006;4.720;2022-08-01T01:21:06;5.50;;;4.00;;
18435;SDS011;9346;52.006;4.720;2022-08-01T01:23:44;7.40;;;4.37;;
18435;SDS011;9346;52.006;4.720;2022-08-01T01:26:29;9.70;;;5.17;;
18435;SDS011;9346;52.006;4.720;2022-08-01T01:29:11;8.00;;;4.17;;
18435;SDS011;9346;52.006;4.720;2022-08-01T01:31:43;7.33;;;4.73;;
18435;SDS011;9346;52.006;4.720;2022-08-01T01:34:13;8.03;;;4.20;;
18435;SDS011;9346;52.006;4.720;2022-08-01T01:36:43;6.63;;;3.70;;
18435;SDS011;9346;52.006;4.720;2022-08-01T01:39:12;8.60;;;4.63;;
18435;SDS011;9346;52.006;4.720;2022-08-01T01:41:40;4.90;;;3.70;;
18435;SDS011;9346;52.006;4.720;2022-08-01T01:44:11;5.50;;;3.60;;
18435;SDS011;9346;52.006;4.720;2022-08-01T01:46:39;5.50;;;3.33;;
18435;SDS011;9346;52.006;4.720;2022-08-01T01:49:08;5.50;;;2.43;;
18435;SDS011;9346;52.006;4.720;2022-08-01T01:51:37;3.40;;;2.67;;
18435;SDS011;9346;52.006;4.720;2022-08-01T01:54:06;3.30;;;2.40;;
18435;SDS011;9346;52.006;4.720;2022-08-01T01:56:35;3.60;;;1.87;;
18435;SDS011;9346;52.006;4.720;2022-08-01T01:59:15;2.43;;;1.53;;
18435;SDS011;9346;52.006;4.720;2022-08-01T02:01:46;4.23;;;1.47;;
18435;SDS011;9346;52.006;4.720;2022-08-01T02:04:15;3.00;;;1.73;;
18435;SDS011;9346;52.006;4.720;2022-08-01T02:06:43;2.43;;;1.53;;
18435;SDS011;9346;52.006;4.720;2022-08-01T02:09:14;4.07;;;1.87;;
18435;SDS011;9346;52.006;4.720;2022-08-01T02:11:42;2.00;;;1.70;;
18435;SDS011;9346;52.006;4.720;2022-08-01T02:14:10;2.10;;;1.70;;
18435;SDS011;9346;52.006;4.720;2022-08-01T02:16:41;2.77;;;1.83;;
18435;SDS011;9346;52.006;4.720;2022-08-01T02:19:10;3.03;;;1.70;;
18435;SDS011;9346;52.006;4.720;2022-08-01T02:21:38;4.80;;;2.37;;
18435;SDS011;9346;52.006;4.720;2022-08-01T02:24:09;5.83;;;2.30;;
18435;SDS011;9346;52.006;4.720;2022-08-01T02:26:42;3.20;;;2.20;;
18435;SDS011;9346;52.006;4.720;2022-08-01T02:29:13;2.60;;;1.87;;
18435;SDS011;9346;52.006;4.720;2022-08-01T02:31:45;3.97;;;2.27;;
18435;SDS011;9346;52.006;4.720;2022-08-01T02:34:15;2.37;;;2.03;;
18435;SDS011;9346;52.006;4.720;2022-08-01T02:36:45;3.07;;;2.33;;
18435;SDS011;9346;52.006;4.720;2022-08-01T02:39:14;2.70;;;1.60;;
18435;SDS011;9346;52.006;4.720;2022-08-01T02:41:45;3.77;;;2.00;;
18435;SDS011;9346;52.006;4.720;2022-08-01T02:44:15;5.47;;;2.33;;
18435;SDS011;9346;52.006;4.720;2022-08-01T02:46:50;3.73;;;1.90;;
18435;SDS011;9346;52.006;4.720;2022-08-01T02:49:20;4.70;;;2.57;;
18435;SDS011;9346;52.006;4.720;2022-08-01T02:51:51;3.03;;;2.20;;
18435;SDS011;9346;52.006;4.720;2022-08-01T02:54:21;3.33;;;2.30;;
18435;SDS011;9346;52.006;4.720;2022-08-01T02:56:49;4.47;;;2.03;;
18435;SDS011;9346;52.006;4.720;2022-08-01T02:59:19;2.73;;;1.80;;
18435;SDS011;9346;52.006;4.720;2022-08-01T03:01:52;2.63;;;2.13;;
18435;SDS011;9346;52.006;4.720;2022-08-01T03:04:21;2.33;;;2.13;;
18435;SDS011;9346;52.006;4.720;2022-08-01T03:06:49;2.73;;;1.80;;
18435;SDS011;9346;52.006;4.720;2022-08-01T03:09:19;4.27;;;2.33;;
18435;SDS011;9346;52.006;4.720;2022-08-01T03:11:46;3.37;;;1.80;;
18435;SDS011;9346;52.006;4.720;2022-08-01T03:14:16;7.57;;;2.53;;
18435;SDS011;9346;52.006;4.720;2022-08-01T03:16:47;2.17;;;1.83;;
18435;SDS011;9346;52.006;4.720;2022-08-01T03:19:18;3.00;;;1.93;;
18435;SDS011;9346;52.006;4.720;2022-08-01T03:21:46;3.43;;;2.17;;
18435;SDS011;9346;52.006;4.720;2022-08-01T03:24:15;4.03;;;2.33;;
18435;SDS011;9346;52.006;4.720;2022-08-01T03:26:43;3.33;;;2.60;;
18435;SDS011;9346;52.006;4.720;2022-08-01T03:29:12;4.17;;;2.30;;
18435;SDS011;9346;52.006;4.720;2022-08-01T03:31:43;3.77;;;2.70;;
18435;SDS011;9346;52.006;4.720;2022-08-01T03:34:12;3.37;;;2.30;;
18435;SDS011;9346;52.006;4.720;2022-08-01T03:36:45;3.50;;;2.63;;
18435;SDS011;9346;52.006;4.720;2022-08-01T03:39:14;3.53;;;2.40;;
18435;SDS011;9346;52.006;4.720;2022-08-01T03:41:43;5.93;;;2.53;;
18435;SDS011;9346;52.006;4.720;2022-08-01T03:44:15;4.87;;;2.60;;
18435;SDS011;9346;52.006;4.720;2022-08-01T03:46:47;4.20;;;2.70;;
18435;SDS011;9346;52.006;4.720;2022-08-01T03:49:17;4.97;;;4.03;;
18435;SDS011;9346;52.006;4.720;2022-08-01T03:51:48;2.80;;;2.50;;
18435;SDS011;9346;52.006;4.720;2022-08-01T03:54:20;3.43;;;2.50;;
18435;SDS011;9346;52.006;4.720;2022-08-01T03:56:50;2.53;;;2.33;;
18435;SDS011;9346;52.006;4.720;2022-08-01T03:59:18;2.83;;;2.50;;
18435;SDS011;9346;52.006;4.720;2022-08-01T04:01:46;3.20;;;2.63;;
18435;SDS011;9346;52.006;4.720;2022-08-01T04:04:14;3.30;;;2.47;;
18435;SDS011;9346;52.006;4.720;2022-08-01T04:06:41;3.50;;;2.60;;
18435;SDS011;9346;52.006;4.720;2022-08-01T04:09:11;2.30;;;1.90;;
18435;SDS011;9346;52.006;4.720;2022-08-01T04:11:38;2.87;;;2.40;;
18435;SDS011;9346;52.006;4.720;2022-08-01T04:14:05;2.53;;;2.20;;
18435;SDS011;9346;52.006;4.720;2022-08-01T04:16:33;3.87;;;2.47;;
18435;SDS011;9346;52.006;4.720;2022-08-01T04:19:00;2.87;;;1.87;;
18435;SDS011;9346;52.006;4.720;2022-08-01T04:21:28;3.37;;;2.37;;
18435;SDS011;9346;52.006;4.720;2022-08-01T04:23:59;3.17;;;2.37;;
18435;SDS011;9346;52.006;4.720;2022-08-01T04:26:34;3.93;;;2.63;;
18435;SDS011;9346;52.006;4.720;2022-08-01T04:29:03;3.97;;;2.73;;
18435;SDS011;9346;52.006;4.720;2022-08-01T04:31:32;3.60;;;2.07;;
18435;SDS011;9346;52.006;4.720;2022-08-01T04:34:02;3.23;;;2.23;;
18435;SDS011;9346;52.006;4.720;2022-08-01T04:36:31;3.20;;;2.43;;
18435;SDS011;9346;52.006;4.720;2022-08-01T04:39:00;2.20;;;2.00;;
18435;SDS011;9346;52.006;4.720;2022-08-01T04:41:29;3.50;;;2.37;;
18435;SDS011;9346;52.006;4.720;2022-08-01T04:43:58;2.50;;;2.30;;
18435;SDS011;9346;52.006;4.720;2022-08-01T04:46:27;2.17;;;1.97;;
18435;SDS011;9346;52.006;4.720;2022-08-01T04:48:55;2.20;;;1.93;;
18435;SDS011;9346;52.006;4.720;2022-08-01T04:51:22;2.80;;;2.33;;
18435;SDS011;9346;52.006;4.720;2022-08-01T04:53:49;2.33;;;2.13;;
18435;SDS011;9346;52.006;4.720;2022-08-01T04:56:17;3.90;;;2.23;;
18435;SDS011;9346;52.006;4.720;2022-08-01T04:58:45;3.13;;;2.33;;
18435;SDS011;9346;52.006;4.720;2022-08-01T05:01:14;4.70;;;2.23;;
18435;SDS011;9346;52.006;4.720;2022-08-01T05:03:41;4.43;;;2.43;;
18435;SDS011;9346;52.006;4.720;2022-08-01T05:06:09;3.07;;;2.20;;
18435;SDS011;9346;52.006;4.720;2022-08-01T05:08:35;2.33;;;2.00;;
18435;SDS011;9346;52.006;4.720;2022-08-01T05:11:02;2.70;;;2.23;;
18435;SDS011;9346;52.006;4.720;2022-08-01T05:13:30;2.63;;;2.37;;
18435;SDS011;9346;52.006;4.720;2022-08-01T05:15:56;2.03;;;1.80;;
18435;SDS011;9346;52.006;4.720;2022-08-01T05:18:25;2.97;;;2.13;;
18435;SDS011;9346;52.006;4.720;2022-08-01T05:20:53;2.37;;;2.17;;
18435;SDS011;9346;52.006;4.720;2022-08-01T05:23:20;3.33;;;2.47;;
18435;SDS011;9346;52.006;4.720;2022-08-01T05:25:47;5.40;;;2.87;;
18435;SDS011;9346;52.006;4.720;2022-08-01T05:28:14;4.23;;;2.13;;
18435;SDS011;9346;52.006;4.720;2022-08-01T05:30:41;4.50;;;2.70;;
18435;SDS011;9346;52.006;4.720;2022-08-01T05:33:08;3.03;;;2.43;;
18435;SDS011;9346;52.006;4.720;2022-08-01T05:35:37;3.50;;;2.80;;
18435;SDS011;9346;52.006;4.720;2022-08-01T05:38:04;2.93;;;2.47;;
18435;SDS011;9346;52.006;4.720;2022-08-01T05:40:31;3.23;;;2.40;;
18435;SDS011;9346;52.006;4.720;2022-08-01T05:42:58;4.60;;;3.00;;
18435;SDS011;9346;52.006;4.720;2022-08-01T05:45:25;3.00;;;2.43;;
18435;SDS011;9346;52.006;4.720;2022-08-01T05:47:52;2.23;;;2.00;;
18435;SDS011;9346;52.006;4.720;2022-08-01T05:50:18;2.73;;;2.10;;
18435;SDS011;9346;52.006;4.720;2022-08-01T05:52:47;5.13;;;2.83;;
18435;SDS011;9346;52.006;4.720;2022-08-01T05:55:14;2.80;;;2.00;;
18435;SDS011;9346;52.006;4.720;2022-08-01T05:57:41;2.10;;;1.90;;
18435;SDS011;9346;52.006;4.720;2022-08-01T06:00:08;3.60;;;2.17;;
18435;SDS011;9346;52.006;4.720;2022-08-01T06:02:39;3.00;;;1.73;;
18435;SDS011;9346;52.006;4.720;2022-08-01T06:05:07;3.20;;;1.93;;
18435;SDS011;9346;52.006;4.720;2022-08-01T06:07:35;3.60;;;1.57;;
18435;SDS011;9346;52.006;4.720;2022-08-01T06:10:06;1.17;;;1.03;;
18435;SDS011;9346;52.006;4.720;2022-08-01T06:12:34;2.07;;;1.20;;
18435;SDS011;9346;52.006;4.720;2022-08-01T06:15:01;1.40;;;1.10;;
18435;SDS011;9346;52.006;4.720;2022-08-01T06:17:28;2.90;;;2.00;;
18435;SDS011;9346;52.006;4.720;2022-08-01T06:19:55;2.17;;;1.53;;
18435;SDS011;9346;52.006;4.720;2022-08-01T06:22:22;1.83;;;1.57;;
18435;SDS011;9346;52.006;4.720;2022-08-01T06:24:49;3.10;;;1.47;;
18435;SDS011;9346;52.006;4.720;2022-08-01T06:27:18;1.40;;;1.30;;
18435;SDS011;9346;52.006;4.720;2022-08-01T06:29:45;1.87;;;1.30;;
18435;SDS011;9346;52.006;4.720;2022-08-01T06:32:13;1.73;;;1.63;;
18435;SDS011;9346;52.006;4.720;2022-08-01T06:34:40;2.33;;;1.97;;
18435;SDS011;9346;52.006;4.720;2022-08-01T06:37:08;4.27;;;2.27;;
18435;SDS011;9346;52.006;4.720;2022-08-01T06:39:38;4.13;;;2.50;;
18435;SDS011;9346;52.006;4.720;2022-08-01T06:42:04;3.33;;;2.73;;
18435;SDS011;9346;52.006;4.720;2022-08-01T06:44:33;2.73;;;2.37;;
18435;SDS011;9346;52.006;4.720;2022-08-01T06:47:00;4.90;;;3.27;;
18435;SDS011;9346;52.006;4.720;2022-08-01T06:49:26;4.23;;;3.03;;
18435;SDS011;9346;52.006;4.720;2022-08-01T06:51:53;5.63;;;3.20;;
18435;SDS011;9346;52.006;4.720;2022-08-01T06:54:20;4.10;;;3.47;;
18435;SDS011;9346;52.006;4.720;2022-08-01T06:56:47;5.40;;;3.60;;
18435;SDS011;9346;52.006;4.720;2022-08-01T06:59:14;4.07;;;3.37;;
18435;SDS011;9346;52.006;4.720;2022-08-01T07:01:43;4.67;;;3.50;;
18435;SDS011;9346;52.006;4.720;2022-08-01T07:04:10;5.03;;;3.23;;
18435;SDS011;9346;52.006;4.720;2022-08-01T07:06:37;5.93;;;3.07;;
18435;SDS011;9346;52.006;4.720;2022-08-01T07:09:05;11.07;;;3.93;;
18435;SDS011;9346;52.006;4.720;2022-08-01T07:11:32;6.83;;;4.00;;
18435;SDS011;9346;52.006;4.720;2022-08-01T07:13:59;5.80;;;3.20;;
18435;SDS011;9346;52.006;4.720;2022-08-01T07:16:28;6.30;;;3.13;;
18435;SDS011;9346;52.006;4.720;2022-08-01T07:18:57;11.33;;;3.40;;
18435;SDS011;9346;52.006;4.720;2022-08-01T07:21:23;7.27;;;3.63;;
18435;SDS011;9346;52.006;4.720;2022-08-01T07:23:51;4.60;;;3.60;;
18435;SDS011;9346;52.006;4.720;2022-08-01T07:26:17;5.00;;;3.23;;
18435;SDS011;9346;52.006;4.720;2022-08-01T07:28:44;6.83;;;3.67;;
18435;SDS011;9346;52.006;4.720;2022-08-01T07:31:11;4.97;;;3.20;;
18435;SDS011;9346;52.006;4.720;2022-08-01T07:33:38;3.90;;;2.50;;
18435;SDS011;9346;52.006;4.720;2022-08-01T07:36:06;7.87;;;3.17;;
18435;SDS011;9346;52.006;4.720;2022-08-01T07:38:33;4.10;;;2.37;;
18435;SDS011;9346;52.006;4.720;2022-08-01T07:41:00;5.43;;;2.60;;
18435;SDS011;9346;52.006;4.720;2022-08-01T07:43:27;5.27;;;2.73;;
18435;SDS011;9346;52.006;4.720;2022-08-01T07:45:55;7.13;;;3.07;;
18435;SDS011;9346;52.006;4.720;2022-08-01T07:48:22;8.10;;;2.57;;
18435;SDS011;9346;52.006;4.720;2022-08-01T07:50:49;7.47;;;2.80;;
18435;SDS011;9346;52.006;4.720;2022-08-01T07:53:18;7.80;;;2.60;;
18435;SDS011;9346;52.006;4.720;2022-08-01T07:55:45;6.13;;;2.77;;
18435;SDS011;9346;52.006;4.720;2022-08-01T07:58:12;6.80;;;2.20;;
18435;SDS011;9346;52.006;4.720;2022-08-01T08:00:40;2.63;;;1.67;;
18435;SDS011;9346;52.006;4.720;2022-08-01T08:03:06;5.30;;;2.27;;
18435;SDS011;9346;52.006;4.720;2022-08-01T08:05:33;5.23;;;2.87;;
18435;SDS011;9346;52.006;4.720;2022-08-01T08:08:00;5.13;;;2.90;;
18435;SDS011;9346;52.006;4.720;2022-08-01T08:10:29;3.40;;;1.87;;
18435;SDS011;9346;52.006;4.720;2022-08-01T08:12:55;8.47;;;2.20;;
18435;SDS011;9346;52.006;4.720;2022-08-01T08:15:22;4.83;;;1.83;;
18435;SDS011;9346;52.006;4.720;2022-08-01T08:17:49;4.73;;;1.80;;
18435;SDS011;9346;52.006;4.720;2022-08-01T08:20:16;3.93;;;2.10;;
18435;SDS011;9346;52.006;4.720;2022-08-01T08:22:43;11.97;;;2.50;;
18435;SDS011;9346;52.006;4.720;2022-08-01T08:25:10;4.40;;;1.43;;
18435;SDS011;9346;52.006;4.720;2022-08-01T08:27:38;3.53;;;2.20;;
18435;SDS011;9346;52.006;4.720;2022-08-01T08:30:06;2.53;;;1.50;;
18435;SDS011;9346;52.006;4.720;2022-08-01T08:32:33;2.87;;;1.53;;
18435;SDS011;9346;52.006;4.720;2022-08-01T08:35:00;6.37;;;1.87;;
18435;SDS011;9346;52.006;4.720;2022-08-01T08:37:27;3.67;;;1.40;;
18435;SDS011;9346;52.006;4.720;2022-08-01T08:39:55;1.73;;;1.30;;
18435;SDS011;9346;52.006;4.720;2022-08-01T08:42:22;4.00;;;1.60;;
18435;SDS011;9346;52.006;4.720;2022-08-01T08:44:51;4.47;;;1.53;;
18435;SDS011;9346;52.006;4.720;2022-08-01T08:47:19;4.27;;;1.40;;
18435;SDS011;9346;52.006;4.720;2022-08-01T08:49:49;4.10;;;1.77;;
18435;SDS011;9346;52.006;4.720;2022-08-01T08:52:19;5.67;;;1.70;;
18435;SDS011;9346;52.006;4.720;2022-08-01T08:54:47;9.17;;;1.87;;
18435;SDS011;9346;52.006;4.720;2022-08-01T08:57:15;4.90;;;1.10;;
18435;SDS011;9346;52.006;4.720;2022-08-01T08:59:44;4.83;;;1.67;;
18435;SDS011;9346;52.006;4.720;2022-08-01T09:02:13;5.00;;;2.07;;
18435;SDS011;9346;52.006;4.720;2022-08-01T09:04:40;1.57;;;1.00;;
18435;SDS011;9346;52.006;4.720;2022-08-01T09:07:07;11.10;;;1.83;;
18435;SDS011;9346;52.006;4.720;2022-08-01T09:09:35;3.77;;;1.20;;
18435;SDS011;9346;52.006;4.720;2022-08-01T09:12:02;1.70;;;1.10;;
18435;SDS011;9346;52.006;4.720;2022-08-01T09:14:29;5.20;;;1.53;;
18435;SDS011;9346;52.006;4.720;2022-08-01T09:17:01;4.77;;;2.20;;
18435;SDS011;9346;52.006;4.720;2022-08-01T09:19:36;3.33;;;1.50;;
18435;SDS011;9346;52.006;4.720;2022-08-01T09:22:06;2.50;;;1.20;;
18435;SDS011;9346;52.006;4.720;2022-08-01T09:24:34;2.90;;;1.30;;
18435;SDS011;9346;52.006;4.720;2022-08-01T09:27:04;3.03;;;1.50;;
18435;SDS011;9346;52.006;4.720;2022-08-01T09:29:42;3.20;;;1.57;;
18435;SDS011;9346;52.006;4.720;2022-08-01T09:32:09;1.40;;;0.90;;
18435;SDS011;9346;52.006;4.720;2022-08-01T09:34:38;1.53;;;1.00;;
18435;SDS011;9346;52.006;4.720;2022-08-01T09:37:05;2.57;;;0.97;;
18435;SDS011;9346;52.006;4.720;2022-08-01T09:39:33;1.53;;;1.00;;
18435;SDS011;9346;52.006;4.720;2022-08-01T09:42:18;4.40;;;1.30;;
18435;SDS011;9346;52.006;4.720;2022-08-01T09:44:46;2.40;;;1.20;;
18435;SDS011;9346;52.006;4.720;2022-08-01T09:47:14;4.07;;;1.30;;
18435;SDS011;9346;52.006;4.720;2022-08-01T09:49:43;1.80;;;1.20;;
18435;SDS011;9346;52.006;4.720;2022-08-01T09:52:12;3.13;;;0.83;;
18435;SDS011;9346;52.006;4.720;2022-08-01T09:54:40;3.60;;;1.57;;
18435;SDS011;9346;52.006;4.720;2022-08-01T09:57:12;2.60;;;1.27;;
18435;SDS011;9346;52.006;4.720;2022-08-01T09:59:41;4.77;;;1.17;;
18435;SDS011;9346;52.006;4.720;2022-08-01T10:02:10;2.10;;;0.97;;
18435;SDS011;9346;52.006;4.720;2022-08-01T10:04:47;1.67;;;0.97;;
18435;SDS011;9346;52.006;4.720;2022-08-01T10:07:14;1.00;;;0.90;;
18435;SDS011;9346;52.006;4.720;2022-08-01T10:09:42;6.67;;;1.50;;
18435;SDS011;9346;52.006;4.720;2022-08-01T10:12:12;7.07;;;2.17;;
18435;SDS011;9346;52.006;4.720;2022-08-01T10:14:40;3.13;;;1.37;;
18435;SDS011;9346;52.006;4.720;2022-08-01T10:17:09;2.43;;;1.10;;
18435;SDS011;9346;52.006;4.720;2022-08-01T10:19:39;1.60;;;1.10;;
18435;SDS011;9346;52.006;4.720;2022-08-01T10:22:11;1.70;;;1.10;;
18435;SDS011;9346;52.006;4.720;2022-08-01T10:24:42;1.83;;;1.10;;
18435;SDS011;9346;52.006;4.720;2022-08-01T10:27:11;4.07;;;1.67;;
18435;SDS011;9346;52.006;4.720;2022-08-01T10:29:42;4.00;;;1.20;;
18435;SDS011;9346;52.006;4.720;2022-08-01T10:32:13;7.70;;;2.47;;
18435;SDS011;9346;52.006;4.720;2022-08-01T10:34:42;8.87;;;1.63;;
18435;SDS011;9346;52.006;4.720;2022-08-01T10:37:11;2.23;;;1.23;;
18435;SDS011;9346;52.006;4.720;2022-08-01T10:39:39;4.57;;;1.53;;
18435;SDS011;9346;52.006;4.720;2022-08-01T10:42:06;2.90;;;1.50;;
18435;SDS011;9346;52.006;4.720;2022-08-01T10:44:36;2.77;;;1.27;;
18435;SDS011;9346;52.006;4.720;2022-08-01T10:47:06;5.87;;;1.40;;
18435;SDS011;9346;52.006;4.720;2022-08-01T10:49:36;3.07;;;1.20;;
18435;SDS011;9346;52.006;4.720;2022-08-01T10:52:07;5.20;;;1.53;;
18435;SDS011;9346;52.006;4.720;2022-08-01T10:54:39;3.97;;;1.37;;
18435;SDS011;9346;52.006;4.720;2022-08-01T10:57:07;2.03;;;1.03;;
18435;SDS011;9346;52.006;4.720;2022-08-01T10:59:35;2.80;;;1.47;;
18435;SDS011;9346;52.006;4.720;2022-08-01T11:02:17;3.53;;;1.03;;
18435;SDS011;9346;52.006;4.720;2022-08-01T11:04:54;1.87;;;0.93;;
18435;SDS011;9346;52.006;4.720;2022-08-01T11:07:23;3.97;;;1.30;;
18435;SDS011;9346;52.006;4.720;2022-08-01T11:10:09;3.40;;;1.60;;
18435;SDS011;9346;52.006;4.720;2022-08-01T11:12:43;2.50;;;1.30;;
18435;SDS011;9346;52.006;4.720;2022-08-01T11:15:17;3.33;;;1.43;;
18435;SDS011;9346;52.006;4.720;2022-08-01T11:17:52;3.67;;;1.20;;
18435;SDS011;9346;52.006;4.720;2022-08-01T11:20:20;3.10;;;1.37;;
18435;SDS011;9346;52.006;4.720;2022-08-01T11:28:43;2.07;;;1.40;;
18435;SDS011;9346;52.006;4.720;2022-08-01T11:31:30;2.27;;;1.20;;
18435;SDS011;9346;52.006;4.720;2022-08-01T11:33:59;2.40;;;1.37;;
18435;SDS011;9346;52.006;4.720;2022-08-01T11:36:26;2.87;;;1.43;;
18435;SDS011;9346;52.006;4.720;2022-08-01T11:39:12;2.27;;;1.33;;
18435;SDS011;9346;52.006;4.720;2022-08-01T11:41:43;2.37;;;1.57;;
18435;SDS011;9346;52.006;4.720;2022-08-01T11:44:12;4.63;;;1.53;;
18435;SDS011;9346;52.006;4.720;2022-08-01T11:52:23;3.97;;;1.40;;
18435;SDS011;9346;52.006;4.720;2022-08-01T11:54:54;3.20;;;1.23;;
18435;SDS011;9346;52.006;4.720;2022-08-01T11:57:24;2.40;;;1.10;;
18435;SDS011;9346;52.006;4.720;2022-08-01T11:59:56;3.83;;;1.27;;
18435;SDS011;9346;52.006;4.720;2022-08-01T12:02:24;2.33;;;1.20;;
18435;SDS011;9346;52.006;4.720;2022-08-01T12:04:54;3.30;;;1.30;;
18435;SDS011;9346;52.006;4.720;2022-08-01T12:07:22;2.53;;;1.27;;
18435;SDS011;9346;52.006;4.720;2022-08-01T12:09:56;5.57;;;1.70;;
18435;SDS011;9346;52.006;4.720;2022-08-01T12:12:29;3.07;;;1.70;;
18435;SDS011;9346;52.006;4.720;2022-08-01T12:14:58;4.60;;;1.50;;
18435;SDS011;9346;52.006;4.720;2022-08-01T12:17:30;6.40;;;1.60;;
18435;SDS011;9346;52.006;4.720;2022-08-01T12:20:00;3.70;;;1.07;;
18435;SDS011;9346;52.006;4.720;2022-08-01T12:22:28;6.47;;;2.50;;
18435;SDS011;9346;52.006;4.720;2022-08-01T12:24:55;1.57;;;1.13;;
18435;SDS011;9346;52.006;4.720;2022-08-01T12:27:32;2.57;;;1.10;;
18435;SDS011;9346;52.006;4.720;2022-08-01T12:29:59;3.33;;;1.63;;
18435;SDS011;9346;52.006;4.720;2022-08-01T12:32:27;1.30;;;1.10;;
18435;SDS011;9346;52.006;4.720;2022-08-01T12:34:56;2.03;;;1.20;;
18435;SDS011;9346;52.006;4.720;2022-08-01T12:37:28;1.93;;;1.30;;
18435;SDS011;9346;52.006;4.720;2022-08-01T12:39:55;2.60;;;1.10;;
18435;SDS011;9346;52.006;4.720;2022-08-01T12:42:23;3.33;;;0.80;;
18435;SDS011;9346;52.006;4.720;2022-08-01T12:44:52;1.60;;;0.97;;
18435;SDS011;9346;52.006;4.720;2022-08-01T12:47:20;1.97;;;1.00;;
18435;SDS011;9346;52.006;4.720;2022-08-01T12:49:48;2.00;;;1.10;;
18435;SDS011;9346;52.006;4.720;2022-08-01T12:52:15;4.10;;;1.33;;
18435;SDS011;9346;52.006;4.720;2022-08-01T12:54:59;3.37;;;1.10;;
18435;SDS011;9346;52.006;4.720;2022-08-01T12:57:27;2.07;;;1.40;;
18435;SDS011;9346;52.006;4.720;2022-08-01T13:00:06;1.43;;;1.17;;
18435;SDS011;9346;52.006;4.720;2022-08-01T13:02:38;1.70;;;1.00;;
18435;SDS011;9346;52.006;4.720;2022-08-01T13:05:06;2.60;;;1.00;;
18435;SDS011;9346;52.006;4.720;2022-08-01T13:07:38;2.70;;;1.20;;
18435;SDS011;9346;52.006;4.720;2022-08-01T13:10:15;3.80;;;1.17;;
18435;SDS011;9346;52.006;4.720;2022-08-01T13:12:53;3.80;;;1.20;;
18435;SDS011;9346;52.006;4.720;2022-08-01T13:15:26;2.30;;;1.03;;
18435;SDS011;9346;52.006;4.720;2022-08-01T13:17:56;0.90;;;0.83;;
18435;SDS011;9346;52.006;4.720;2022-08-01T13:20:29;3.43;;;1.37;;
18435;SDS011;9346;52.006;4.720;2022-08-01T13:25:48;3.23;;;1.37;;
18435;SDS011;9346;52.006;4.720;2022-08-01T13:28:16;1.33;;;0.83;;
18435;SDS011;9346;52.006;4.720;2022-08-01T13:30:56;2.80;;;1.23;;
18435;SDS011;9346;52.006;4.720;2022-08-01T13:33:26;2.23;;;1.23;;
18435;SDS011;9346;52.006;4.720;2022-08-01T13:35:54;1.60;;;0.90;;
18435;SDS011;9346;52.006;4.720;2022-08-01T13:38:22;2.87;;;1.07;;
18435;SDS011;9346;52.006;4.720;2022-08-01T13:41:03;2.27;;;1.20;;
18435;SDS011;9346;52.006;4.720;2022-08-01T13:43:31;2.33;;;1.27;;
18435;SDS011;9346;52.006;4.720;2022-08-01T13:45:59;1.63;;;1.37;;
18435;SDS011;9346;52.006;4.720;2022-08-01T13:48:27;2.83;;;0.90;;
18435;SDS011;9346;52.006;4.720;2022-08-01T13:50:55;2.17;;;0.90;;
18435;SDS011;9346;52.006;4.720;2022-08-01T13:53:21;2.30;;;1.03;;
18435;SDS011;9346;52.006;4.720;2022-08-01T13:55:48;3.90;;;1.40;;
18435;SDS011;9346;52.006;4.720;2022-08-01T13:58:16;2.47;;;1.20;;
18435;SDS011;9346;52.006;4.720;2022-08-01T14:00:42;2.47;;;1.00;;
18435;SDS011;9346;52.006;4.720;2022-08-01T14:03:11;1.63;;;0.87;;
18435;SDS011;9346;52.006;4.720;2022-08-01T14:05:37;2.77;;;1.20;;
18435;SDS011;9346;52.006;4.720;2022-08-01T14:08:05;3.90;;;1.60;;
18435;SDS011;9346;52.006;4.720;2022-08-01T14:10:33;2.83;;;1.30;;
18435;SDS011;9346;52.006;4.720;2022-08-01T14:13:01;2.97;;;1.37;;
18435;SDS011;9346;52.006;4.720;2022-08-01T14:15:28;3.17;;;0.97;;
18435;SDS011;9346;52.006;4.720;2022-08-01T14:17:54;0.93;;;0.83;;
18435;SDS011;9346;52.006;4.720;2022-08-01T14:20:23;3.13;;;1.00;;
18435;SDS011;9346;52.006;4.720;2022-08-01T14:22:54;1.77;;;1.50;;
18435;SDS011;9346;52.006;4.720;2022-08-01T14:25:21;1.70;;;0.90;;
18435;SDS011;9346;52.006;4.720;2022-08-01T14:27:48;2.30;;;1.27;;
18435;SDS011;9346;52.006;4.720;2022-08-01T14:30:15;3.07;;;1.53;;
18435;SDS011;9346;52.006;4.720;2022-08-01T14:32:42;2.40;;;0.97;;
18435;SDS011;9346;52.006;4.720;2022-08-01T14:35:09;1.87;;;1.50;;
18435;SDS011;9346;52.006;4.720;2022-08-01T14:37:38;1.20;;;1.00;;
18435;SDS011;9346;52.006;4.720;2022-08-01T14:40:05;3.97;;;1.37;;
18435;SDS011;9346;52.006;4.720;2022-08-01T14:42:34;1.77;;;1.00;;
18435;SDS011;9346;52.006;4.720;2022-08-01T14:45:03;1.80;;;1.03;;
18435;SDS011;9346;52.006;4.720;2022-08-01T14:47:33;1.80;;;1.03;;
18435;SDS011;9346;52.006;4.720;2022-08-01T14:50:01;2.23;;;1.00;;
18435;SDS011;9346;52.006;4.720;2022-08-01T14:52:28;2.73;;;0.97;;
18435;SDS011;9346;52.006;4.720;2022-08-01T14:54:57;2.20;;;1.10;;
18435;SDS011;9346;52.006;4.720;2022-08-01T14:57:23;2.63;;;1.30;;
18435;SDS011;9346;52.006;4.720;2022-08-01T14:59:50;2.33;;;1.20;;
18435;SDS011;9346;52.006;4.720;2022-08-01T15:02:17;3.87;;;0.97;;
18435;SDS011;9346;52.006;4.720;2022-08-01T15:04:45;2.27;;;1.03;;
18435;SDS011;9346;52.006;4.720;2022-08-01T15:07:12;1.90;;;1.17;;
18435;SDS011;9346;52.006;4.720;2022-08-01T15:09:40;4.70;;;1.40;;
18435;SDS011;9346;52.006;4.720;2022-08-01T15:12:12;2.13;;;1.10;;
18435;SDS011;9346;52.006;4.720;2022-08-01T15:14:39;4.20;;;1.30;;
18435;SDS011;9346;52.006;4.720;2022-08-01T15:17:16;2.50;;;1.20;;
18435;SDS011;9346;52.006;4.720;2022-08-01T15:19:45;4.10;;;1.23;;
18435;SDS011;9346;52.006;4.720;2022-08-01T15:22:14;1.90;;;1.10;;
18435;SDS011;9346;52.006;4.720;2022-08-01T15:24:41;2.83;;;1.17;;
18435;SDS011;9346;52.006;4.720;2022-08-01T15:27:10;2.47;;;1.10;;